Time;durP1;ratioP1;P1;durP2;ratioP2;P2;SDS_P1;SDS_P2;PMS_P1;PMS_P2;Temp;Humidity;BMP_temperature;BMP_pressure;BME280_temperature;BME280_humidity;BME280_pressure;Samples;Min_cycle;Max_cycle;Signal;HPM_P1;HPM_P2
2023/05/12 07:29:43;;;;;;;5.05;4.55;;;19.00;1.00;;;;;;6150570;23;20253;-88
2023/05/12 07:32:09;;;;;;;5.00;4.60;;;18.90;1.00;;;;;;6122505;23;20622;-89
2023/05/12 07:34:35;;;;;;;5.05;4.38;;;19.10;1.00;;;;;;6123975;23;20838;-89
2023/05/12 07:37:01;;;;;;;4.70;4.40;;;19.20;1.00;;;;;;6123978;23;20192;-88
2023/05/12 07:39:35;;;;;;;4.30;4.00;;;20.30;1.00;;;;;;6125135;23;20156;-89
2023/05/12 07:42:01;;;;;;;4.93;4.53;;;19.70;1.00;;;;;;6125741;23;20155;-89
2023/05/12 07:44:27;;;;;;;5.78;4.82;;;19.80;1.00;;;;;;6125969;23;20182;-89
2023/05/12 07:47:04;;;;;;;5.18;4.78;;;21.20;1.00;;;;;;6128946;23;20188;-89
2023/05/12 07:49:48;;;;;;;5.50;4.97;;;20.10;1.00;;;;;;6127654;23;20156;-89
2023/05/12 07:52:19;;;;;;;5.28;4.65;;;20.90;1.00;;;;;;6128276;23;20175;-89
2023/05/12 07:54:49;;;;;;;6.05;5.05;;;20.10;1.00;;;;;;6128692;23;20494;-90
2023/05/12 07:57:38;;;;;;;6.72;4.53;;;20.80;1.00;;;;;;6128271;23;20168;-89
2023/05/12 08:00:48;;;;;;;5.35;4.85;;;19.50;1.00;;;;;;6128629;23;20535;-90
2023/05/12 08:03:17;;;;;;;5.03;4.55;;;20.60;1.00;;;;;;6128735;23;20186;-90
2023/05/12 08:05:51;;;;;;;5.38;4.88;;;20.50;1.00;;;;;;6105223;23;20160;-90
2023/05/12 08:08:23;;;;;;;5.30;4.72;;;19.40;1.00;;;;;;6128766;23;20551;-90
2023/05/12 08:10:54;;;;;;;4.97;4.57;;;20.00;1.00;;;;;;6128302;23;20160;-90
2023/05/12 08:13:30;;;;;;;6.50;4.13;;;19.80;1.00;;;;;;6127187;23;20186;-89
2023/05/12 08:16:05;;;;;;;5.82;3.75;;;20.10;1.00;;;;;;6128465;23;20148;-90
2023/05/12 08:18:33;;;;;;;5.38;4.88;;;19.00;1.00;;;;;;6127654;23;20151;-90
2023/05/12 08:21:08;;;;;;;5.82;5.20;;;19.20;1.00;;;;;;6129601;23;20190;-89
2023/05/12 09:04:39;;;;;;;6.20;5.60;;;18.70;1.00;;;;;;6150766;23;20195;-90
2023/05/12 09:07:09;;;;;;;7.28;5.55;;;19.70;1.00;;;;;;6124540;23;20160;-90
2023/05/12 09:09:36;;;;;;;6.72;6.13;;;18.60;1.00;;;;;;6120702;23;20152;-90
2023/05/12 09:12:05;;;;;;;7.70;6.28;;;20.30;1.00;;;;;;6117556;23;20163;-90
2023/05/12 09:14:34;;;;;;;7.43;6.53;;;18.70;1.00;;;;;;6091088;23;20168;-90
2023/05/12 09:17:02;;;;;;;8.43;6.53;;;20.40;1.00;;;;;;6091431;23;20617;-91
2023/05/12 09:19:28;;;;;;;6.68;6.05;;;19.10;1.00;;;;;;6090883;23;20161;-90
2023/05/12 09:21:54;;;;;;;5.78;4.65;;;20.60;1.00;;;;;;6091844;23;20167;-90
2023/05/12 09:24:21;;;;;;;6.10;4.57;;;20.10;1.00;;;;;;6090714;23;20164;-90
2023/05/12 09:26:51;;;;;;;6.65;4.47;;;20.60;1.00;;;;;;6090965;23;20160;-90
2023/05/12 09:29:18;;;;;;;7.10;4.75;;;19.70;1.00;;;;;;6090374;23;20218;-90
2023/05/12 09:31:54;;;;;;;5.97;4.13;;;20.50;1.00;;;;;;6090707;23;20395;-89
2023/05/12 09:34:32;;;;;;;5.78;3.63;;;20.50;1.00;;;;;;6089883;23;20226;-89
2023/05/12 09:37:00;;;;;;;4.05;3.40;;;19.60;1.00;;;;;;6088391;23;20191;-90
2023/05/12 09:39:26;;;;;;;3.53;3.22;;;19.50;1.00;;;;;;6090261;23;20164;-89
2023/05/12 14:10:00;;;;;;;3.80;1.98;;;21.90;1.00;;;;;;6122274;23;20191;-89
2023/05/12 14:12:26;;;;;;;3.55;2.33;;;22.20;1.00;;;;;;6117114;23;20172;-90
2023/05/12 14:14:54;;;;;;;3.72;2.45;;;22.50;1.00;;;;;;6117458;23;20164;-91
2023/05/12 14:17:19;;;;;;;3.72;2.20;;;22.10;1.00;;;;;;6115890;23;20243;-88
2023/05/12 14:19:45;;;;;;;4.63;2.33;;;22.40;1.00;;;;;;6118912;23;20785;-86
2023/05/12 14:22:10;;;;;;;3.00;2.38;;;22.90;1.00;;;;;;6116569;23;20216;-86
2023/05/12 14:24:36;;;;;;;3.20;2.35;;;23.30;1.00;;;;;;6117654;23;20527;-86
2023/05/12 14:27:02;;;;;;;3.30;2.10;;;22.80;1.00;;;;;;6118537;23;20145;-87
2023/05/12 14:29:27;;;;;;;3.70;2.35;;;23.00;1.00;;;;;;6116700;23;20184;-89
2023/05/12 14:31:55;;;;;;;3.97;2.75;;;23.10;1.00;;;;;;6118478;23;20159;-87
2023/05/12 14:51:30;;;;;;;4.70;2.67;;;22.50;1.00;;;;;;6123272;23;20237;-91
2023/05/12 14:58:12;;;;;;;;;;;;;;;;;;;;;
2023/05/12 15:01:01;;;;;;;2.55;2.35;;;22.10;1.00;;;;;;6037738;23;20249;-90
2023/05/12 15:04:34;;;;;;;;;;;;;;;;;;;;;
2023/05/12 15:08:11;;;;;;;4.05;2.50;;;23.40;1.00;;;;;;6020002;23;20246;-89
2023/05/12 15:14:35;;;;;;;4.18;2.58;;;23.90;1.00;;;;;;5953823;24;20163;-90
2023/05/12 15:17:11;;;;;;;5.90;2.70;;;22.50;1.00;;;;;;6002267;23;20281;-90
2023/05/12 15:19:36;;;;;;;3.10;2.50;;;22.00;1.00;;;;;;6012819;23;20290;-89
2023/05/12 15:22:02;;;;;;;4.45;2.72;;;22.80;1.00;;;;;;6046709;23;20176;-88
2023/05/12 15:24:28;;;;;;;4.35;2.85;;;21.40;1.00;;;;;;6070977;23;20161;-89
2023/05/12 15:26:53;;;;;;;4.82;2.40;;;22.90;1.00;;;;;;6070920;23;20597;-88
2023/05/12 15:29:20;;;;;;;4.55;2.70;;;22.80;1.00;;;;;;6071580;23;20279;-88
2023/05/12 15:31:47;;;;;;;4.28;2.90;;;21.80;1.00;;;;;;6071559;23;20222;-89
2023/05/12 15:34:13;;;;;;;7.78;3.00;;;22.50;1.00;;;;;;6071349;23;20540;-89
2023/05/12 15:36:38;;;;;;;6.78;2.78;;;22.60;1.00;;;;;;6071259;23;20245;-90
2023/05/12 15:39:04;;;;;;;3.38;2.22;;;22.50;1.00;;;;;;6095814;23;20181;-89
2023/05/12 15:41:30;;;;;;;4.97;2.38;;;;;;;;;;6071611;23;20240;-90
2023/05/12 15:43:55;;;;;;;2.78;2.38;;;21.80;1.00;;;;;;6071501;23;20632;-90
2023/05/12 15:46:21;;;;;;;3.30;2.33;;;21.40;1.00;;;;;;6074775;23;20213;-90
2023/05/12 15:48:50;;;;;;;3.80;2.30;;;20.90;99.90;;;;;;6072026;23;20212;-88
2023/05/12 15:51:16;;;;;;;3.45;2.28;;;21.30;99.90;;;;;;6070878;23;20183;-88
2023/05/12 15:53:42;;;;;;;4.35;2.38;;;20.90;1.00;;;;;;6071003;23;20591;-88
2023/05/12 15:56:08;;;;;;;4.22;2.85;;;;;;;;;;6070924;23;20164;-90
2023/05/12 15:58:34;;;;;;;4.03;2.53;;;20.70;1.00;;;;;;6071271;23;20189;-89
2023/05/12 16:00:59;;;;;;;2.85;2.65;;;20.70;1.00;;;;;;6071363;23;20208;-89
2023/05/12 16:03:26;;;;;;;4.70;2.50;;;;;;;;;;6071062;23;20161;-89
2023/05/12 16:05:51;;;;;;;2.50;2.25;;;21.00;1.00;;;;;;6071594;23;20161;-90
2023/05/12 16:08:17;;;;;;;2.67;2.35;;;;;;;;;;6098213;23;20192;-89
2023/05/12 16:10:43;;;;;;;4.25;2.40;;;21.50;1.00;;;;;;6072788;23;20172;-89
2023/05/12 16:13:09;;;;;;;3.95;2.25;;;22.10;1.00;;;;;;6072413;23;20168;-90
2023/05/12 16:15:35;;;;;;;2.58;2.20;;;21.60;1.00;;;;;;6073137;23;20175;-89
2023/05/12 16:41:02;;;;;;;2.80;2.60;;;20.80;1.00;;;;;;6147273;23;20195;-77
2023/05/12 16:43:33;;;;;;;3.15;2.53;;;20.90;1.00;;;;;;6149306;23;20223;-77
2023/05/12 16:46:05;;;;;;;5.25;2.83;;;20.80;1.00;;;;;;6144975;23;20170;-76
2023/05/12 16:48:37;;;;;;;4.68;2.47;;;20.80;1.00;;;;;;6118874;23;20575;-76
2023/05/12 16:51:10;;;;;;;4.03;2.88;;;21.30;1.00;;;;;;6092015;23;20164;-80
2023/05/12 16:54:07;;;;;;;4.70;2.58;;;20.40;1.00;;;;;;6119660;23;20235;-78
2023/05/12 17:04:18;;;;;;;3.28;2.95;;;19.70;1.00;;;;;;5971244;24;20147;-77
2023/05/12 17:10:56;;;;;;;;;;;;;;;;;;;;;
2023/05/12 17:13:42;;;;;;;5.63;3.00;;;19.70;1.00;;;;;;5944375;24;20178;-80
2023/05/12 17:16:16;;;;;;;5.22;2.90;;;19.80;1.00;;;;;;5944885;24;20195;-75
2023/05/12 17:30:45;;;;;;;3.90;2.67;;;19.70;1.00;;;;;;6157162;23;20542;-92
2023/05/12 17:33:11;;;;;;;5.93;2.83;;;19.60;1.00;;;;;;6131209;23;20156;-91
2023/05/12 17:35:38;;;;;;;3.10;2.60;;;19.60;1.00;;;;;;6129488;23;20183;-93
2023/05/12 17:38:05;;;;;;;4.18;2.92;;;19.20;1.00;;;;;;6123181;23;20652;-93
2023/05/12 17:44:32;;;;;;;2.70;2.50;;;19.40;1.00;;;;;;6127447;23;20146;-94
2023/05/12 17:47:34;;;;;;;3.63;2.58;;;19.30;1.00;;;;;;6107756;23;20235;-93
2023/05/12 17:50:33;;;;;;;3.13;2.35;;;19.30;1.00;;;;;;6079065;23;20678;-94
2023/05/12 18:07:24;;;;;;;3.65;2.63;;;18.90;1.00;;;;;;6064917;23;20193;-93
2023/05/12 18:44:27;;;;;;;3.45;3.15;;;17.40;1.00;;;;;;6028069;23;20873;-93
2023/05/12 21:44:07;;;;;;;3.53;2.67;;;16.10;1.00;;;;;;6126374;23;20216;-76
2023/05/12 23:08:48;;;;;;;6.65;2.70;;;14.70;1.00;;;;;;5998827;23;20226;-77
